Time;durP1;ratioP1;P1;durP2;ratioP2;P2;SDS_P1;SDS_P2;PMS_P1;PMS_P2;Temp;Humidity;BMP_temperature;BMP_pressure;BME280_temperature;BME280_humidity;BME280_pressure;Samples;Min_cycle;Max_cycle;Signal;HPM_P1;HPM_P2
2022/05/23 00:03:07;;;;;;;3.30;1.80;;;;;;;14.34;50.96;98734.77;233785;1217;139993;-62
2022/05/23 00:08:11;;;;;;;3.50;1.90;;;;;;;14.29;51.06;98738.58;233390;1216;139910;-62
2022/05/23 00:13:14;;;;;;;3.60;1.90;;;;;;;14.21;51.23;98733.12;233744;1217;138373;-62
2022/05/23 00:18:17;;;;;;;4.30;1.90;;;;;;;14.15;51.35;98736.65;233687;1215;139268;-60
2022/05/23 00:23:22;;;;;;;3.10;2.30;;;;;;;14.09;51.24;98738.39;233476;1217;138669;-60
2022/05/23 00:28:25;;;;;;;4.80;2.20;;;;;;;14.07;51.79;98741.48;233752;1217;139172;-60
2022/05/23 00:38:51;;;;;;;6.30;2.90;;;;;;;14.00;51.77;98747.04;233725;1217;138783;-60
2022/05/23 00:44:04;;;;;;;3.30;2.20;;;;;;;13.94;52.10;98748.16;233714;1217;138630;-63
2022/05/23 00:49:08;;;;;;;5.20;2.50;;;;;;;13.91;52.22;98752.65;233805;1217;140308;-62
2022/05/23 00:54:12;;;;;;;4.10;2.60;;;;;;;13.88;52.24;98759.55;233891;1217;138804;-62
2022/05/23 00:59:22;;;;;;;6.60;2.90;;;;;;;13.87;52.21;98768.19;233609;1217;138694;-61
2022/05/23 01:04:26;;;;;;;5.40;2.60;;;;;;;13.83;52.20;98766.92;233820;1217;139107;-62
2022/05/23 01:09:29;;;;;;;4.90;2.70;;;;;;;13.80;52.23;98769.43;233647;1217;138503;-62
2022/05/23 01:14:50;;;;;;;5.60;3.00;;;;;;;13.76;52.63;98767.33;233804;1217;138528;-60
2022/05/23 01:19:53;;;;;;;4.40;3.00;;;;;;;13.72;52.68;98775.98;233728;1216;138712;-61
2022/05/23 01:25:15;;;;;;;3.80;2.50;;;;;;;13.66;52.73;98772.88;233812;1216;138413;-62
2022/05/23 01:30:19;;;;;;;8.30;3.50;;;;;;;13.63;53.12;98777.58;233558;1217;139073;-61
2022/05/23 01:35:37;;;;;;;5.30;3.20;;;;;;;13.68;53.40;98774.86;233477;1219;140564;-60
2022/05/23 01:40:40;;;;;;;5.10;3.30;;;;;;;13.72;52.91;98775.09;233953;1216;139045;-60
2022/05/23 01:45:47;;;;;;;5.40;3.10;;;;;;;13.71;53.41;98778.52;233964;1216;138698;-61
2022/05/23 01:50:59;;;;;;;4.60;3.40;;;;;;;13.66;52.97;98782.14;233613;1217;138567;-61
2022/05/23 01:56:06;;;;;;;5.20;3.20;;;;;;;13.56;53.21;98782.09;233520;1217;138737;-61
2022/05/23 02:01:36;;;;;;;7.20;3.60;;;;;;;13.42;53.13;98781.91;233641;1217;139230;-61
2022/05/23 02:06:39;;;;;;;7.40;3.80;;;;;;;13.29;53.11;98776.68;233736;1217;138478;-61
2022/05/23 02:11:54;;;;;;;6.30;3.30;;;;;;;13.20;53.33;98778.58;233482;1217;139623;-61
2022/05/23 02:16:59;;;;;;;5.20;3.40;;;;;;;13.09;53.57;98781.37;233516;1219;138343;-61
2022/05/23 02:22:04;;;;;;;5.90;3.50;;;;;;;13.01;53.51;98782.34;233425;1217;141045;-60
2022/05/23 02:27:07;;;;;;;6.90;4.00;;;;;;;12.94;53.85;98789.98;233718;1217;138460;-60
2022/05/23 02:32:14;;;;;;;6.10;3.80;;;;;;;12.91;53.89;98787.71;233609;1217;138487;-64
2022/05/23 02:37:17;;;;;;;6.30;3.80;;;;;;;12.86;53.93;98783.16;233358;1217;140713;-59
2022/05/23 02:42:25;;;;;;;5.70;3.60;;;;;;;12.86;54.16;98777.98;233910;1217;138967;-60
2022/05/23 02:47:28;;;;;;;8.10;3.80;;;;;;;12.89;54.45;98768.30;233740;1216;139380;-60
2022/05/23 02:52:36;;;;;;;5.80;3.70;;;;;;;12.91;54.53;98764.77;233502;1217;138677;-60
2022/05/23 02:57:45;;;;;;;5.20;3.90;;;;;;;12.85;54.60;98761.84;233469;1219;138868;-62
2022/05/23 03:03:02;;;;;;;8.10;3.90;;;;;;;12.80;54.33;98757.09;233787;1215;138508;-64
2022/05/23 03:08:27;;;;;;;9.10;4.70;;;;;;;12.73;54.86;98759.71;233808;1217;139046;-65
2022/05/23 03:13:32;;;;;;;68.60;52.60;;;;;;;12.71;54.99;98757.79;233607;1217;138175;-64
2022/05/23 03:18:35;;;;;;;11.10;6.80;;;;;;;12.80;55.39;98758.98;233518;1217;138847;-62
2022/05/23 03:29:00;;;;;;;8.00;4.60;;;;;;;12.76;54.93;98763.91;233852;1216;138392;-64
2022/05/23 03:34:03;;;;;;;5.50;3.70;;;;;;;12.76;55.06;98770.49;233777;1217;138738;-65
2022/05/23 03:39:07;;;;;;;14.20;11.20;;;;;;;12.79;55.31;98775.86;233675;1217;139945;-61
2022/05/23 03:44:13;;;;;;;6.20;4.10;;;;;;;12.86;55.44;98774.99;233648;1217;139310;-63
2022/05/23 03:49:18;;;;;;;5.00;3.90;;;;;;;12.95;55.09;98782.30;233627;1216;138414;-63
2022/05/23 03:54:21;;;;;;;6.10;4.30;;;;;;;12.97;55.48;98783.01;233563;1217;138878;-64
2022/05/23 03:59:26;;;;;;;7.20;4.10;;;;;;;13.01;55.05;98782.36;233544;1217;138757;-61
2022/05/23 04:04:31;;;;;;;8.30;4.30;;;;;;;13.05;55.42;98778.17;233976;1217;138198;-62
2022/05/23 04:10:05;;;;;;;7.40;3.70;;;;;;;13.14;55.47;98776.36;232682;1217;138914;-62
2022/05/23 04:15:09;;;;;;;96.80;74.70;;;;;;;13.22;55.29;98774.38;232504;1217;139829;-62
2022/05/23 04:20:13;;;;;;;7.20;4.00;;;;;;;13.34;55.46;98771.48;233494;1217;139118;-60
2022/05/23 04:25:28;;;;;;;7.20;3.70;;;;;;;13.48;55.06;98779.80;233710;1217;139114;-62
2022/05/23 04:30:31;;;;;;;6.30;3.80;;;;;;;13.58;54.87;98777.81;233498;1217;138806;-62
2022/05/23 04:35:35;;;;;;;7.10;3.60;;;;;;;13.74;54.78;98779.01;233754;1217;138929;-62
2022/05/23 04:40:39;;;;;;;6.10;3.70;;;;;;;13.85;54.53;98781.36;233869;1217;142371;-62
2022/05/23 04:45:43;;;;;;;9.00;4.00;;;;;;;13.94;54.15;98782.09;233527;1217;138590;-62
2022/05/23 04:50:53;;;;;;;11.70;4.40;;;;;;;14.02;54.03;98783.20;233794;1217;139839;-63
2022/05/23 04:56:00;;;;;;;9.70;4.10;;;;;;;14.04;53.75;98788.73;233548;1217;138549;-62
2022/05/23 05:01:04;;;;;;;9.80;4.00;;;;;;;14.05;53.59;98784.92;233761;1217;138660;-62
2022/05/23 05:06:07;;;;;;;5.20;3.90;;;;;;;14.07;53.41;98786.08;233560;1217;139456;-64
2022/05/23 05:11:10;;;;;;;6.30;3.30;;;;;;;14.06;53.51;98787.38;233601;1217;138931;-64
2022/05/23 05:16:19;;;;;;;7.50;3.70;;;;;;;14.06;53.57;98784.68;233874;1217;138885;-62
2022/05/23 05:21:23;;;;;;;12.50;3.50;;;;;;;14.07;53.56;98780.10;233741;1217;139399;-63
2022/05/23 05:26:50;;;;;;;7.00;3.70;;;;;;;14.15;53.70;98788.20;233508;1217;139905;-62
2022/05/23 05:32:35;;;;;;;8.40;3.90;;;;;;;14.19;53.54;98788.10;233704;1217;138541;-61
2022/05/23 05:37:45;;;;;;;6.50;3.20;;;;;;;14.26;53.52;98796.40;233655;1217;138460;-62
2022/05/23 05:42:53;;;;;;;6.60;3.20;;;;;;;14.35;53.61;98806.20;233803;1217;138616;-62
2022/05/23 05:47:58;;;;;;;4.80;3.40;;;;;;;14.39;53.25;98800.41;233515;1217;139377;-61
2022/05/23 05:53:29;;;;;;;5.90;3.60;;;;;;;14.44;53.32;98805.52;233440;1217;138507;-61
2022/05/23 05:58:34;;;;;;;10.90;3.40;;;;;;;14.51;53.35;98809.27;233588;1217;139718;-61
2022/05/23 06:03:40;;;;;;;7.90;3.60;;;;;;;14.56;53.10;98818.86;233505;1217;139075;-62
2022/05/23 06:14:07;;;;;;;4.90;3.10;;;;;;;14.66;52.97;98816.40;233719;1217;138823;-61
2022/05/23 06:19:16;;;;;;;5.40;2.80;;;;;;;14.74;52.92;98824.67;233646;1217;138650;-61
2022/05/23 06:24:39;;;;;;;8.10;3.00;;;;;;;14.79;52.86;98827.46;233722;1217;139892;-60
2022/05/23 06:29:44;;;;;;;7.70;2.40;;;;;;;14.75;52.74;98821.54;233784;1216;138585;-63
2022/05/23 06:35:09;;;;;;;9.60;2.50;;;;;;;14.80;52.75;98822.92;233880;1217;138832;-61
2022/05/23 06:40:15;;;;;;;8.30;2.90;;;;;;;14.81;52.21;98826.63;233810;1217;138785;-60
2022/05/23 06:45:54;;;;;;;7.20;2.60;;;;;;;14.88;52.46;98828.84;232807;1217;139372;-62
2022/05/23 06:51:03;;;;;;;4.30;2.30;;;;;;;14.98;52.40;98838.09;231835;1217;138664;-61
2022/05/23 06:56:10;;;;;;;5.40;2.50;;;;;;;15.05;52.30;98840.54;233211;1217;139299;-61
2022/05/23 07:01:14;;;;;;;4.30;2.20;;;;;;;15.12;52.25;98832.42;233677;1217;139071;-61
2022/05/23 07:12:27;;;;;;;4.80;2.70;;;;;;;15.24;51.83;98839.63;233609;1219;138792;-63
2022/05/23 07:17:33;;;;;;;3.50;2.50;;;;;;;15.30;51.70;98830.51;233702;1216;138931;-62
2022/05/23 07:22:55;;;;;;;7.00;2.20;;;;;;;15.37;51.88;98824.95;233853;1217;138699;-63
2022/05/23 07:27:59;;;;;;;4.90;1.70;;;;;;;15.56;52.03;98819.32;233484;1217;139093;-62
2022/05/23 07:33:03;;;;;;;4.00;1.90;;;;;;;15.67;51.77;98806.83;233592;1217;139132;-62
2022/05/23 07:38:32;;;;;;;4.10;1.60;;;;;;;15.80;51.61;98799.38;233690;1217;138889;-60
2022/05/23 07:43:39;;;;;;;6.70;1.70;;;;;;;15.86;51.28;98809.86;232897;1217;139161;-64
2022/05/23 07:48:48;;;;;;;4.00;1.80;;;;;;;15.91;50.70;98800.98;233755;1217;139623;-61
2022/05/23 08:04:45;;;;;;;3.10;1.40;;;;;;;16.20;50.46;98778.70;233272;1217;138715;-63
2022/05/23 08:09:49;;;;;;;3.80;2.80;;;;;;;16.29;50.37;98775.05;233474;1217;139422;-62
2022/05/23 08:14:52;;;;;;;3.30;1.30;;;;;;;16.34;50.11;98772.09;233471;1217;139260;-61
2022/05/23 08:20:05;;;;;;;4.00;1.30;;;;;;;16.53;50.18;98761.27;232651;1215;138925;-64
2022/05/23 08:25:10;;;;;;;4.50;1.40;;;;;;;16.60;49.97;98755.54;233720;1217;138299;-63
2022/05/23 08:30:17;;;;;;;5.20;1.60;;;;;;;16.65;49.27;98753.30;233343;1217;138316;-64
2022/05/23 08:35:23;;;;;;;1.60;1.20;;;;;;;16.71;49.35;98747.05;233513;1217;139330;-63
2022/05/23 08:40:56;;;;;;;3.30;1.50;;;;;;;16.80;49.21;98742.84;233923;1217;138889;-61
2022/05/23 08:46:01;;;;;;;3.90;1.60;;;;;;;16.99;49.23;98739.80;233714;1217;140215;-62
2022/05/23 08:51:16;;;;;;;4.80;1.60;;;;;;;17.15;49.04;98735.80;233566;1217;139022;-62
2022/05/23 08:56:44;;;;;;;3.40;1.40;;;;;;;17.27;48.85;98731.84;233622;1217;138560;-63
2022/05/23 09:02:04;;;;;;;4.40;1.70;;;;;;;17.33;48.25;98732.66;232888;1217;138530;-62
2022/05/23 09:07:24;;;;;;;9.80;1.80;;;;;;;17.32;48.03;98726.46;233688;1215;139024;-62
2022/05/23 09:12:27;;;;;;;1.90;1.40;;;;;;;17.38;48.24;98720.38;233519;1217;138607;-59
2022/05/23 09:17:37;;;;;;;5.10;1.50;;;;;;;17.52;47.98;98713.27;233504;1217;139970;-62
2022/05/23 09:22:53;;;;;;;2.30;1.70;;;;;;;17.69;48.03;98705.68;233830;1217;139657;-59
2022/05/23 09:28:25;;;;;;;5.00;1.40;;;;;;;17.90;47.59;98706.04;233759;1217;140765;-61
2022/05/23 09:33:46;;;;;;;4.20;1.30;;;;;;;17.94;47.13;98711.38;233604;1217;138918;-61
2022/05/23 09:38:54;;;;;;;234.90;177.70;;;;;;;17.84;46.82;98714.52;233568;1217;138328;-62
2022/05/23 09:49:49;;;;;;;5.20;1.40;;;;;;;18.35;46.57;98710.95;233516;1217;138855;-62
2022/05/23 09:54:57;;;;;;;6.40;1.40;;;;;;;18.58;46.21;98701.86;233579;1217;138865;-61
2022/05/23 10:00:08;;;;;;;2.40;1.40;;;;;;;18.91;46.23;98699.01;233544;1217;138454;-65
2022/05/23 10:05:46;;;;;;;2.70;1.50;;;;;;;19.22;46.20;98701.79;233733;1217;139205;-61
2022/05/23 10:10:58;;;;;;;4.00;1.30;;;;;;;19.27;45.44;98690.83;233716;1217;139772;-61
2022/05/23 10:16:26;;;;;;;2.40;1.30;;;;;;;19.32;45.18;98683.61;233591;1217;138334;-61
2022/05/23 10:21:40;;;;;;;2.10;1.10;;;;;;;19.20;44.71;98691.57;233626;1217;138870;-62
2022/05/23 10:26:51;;;;;;;2.80;1.00;;;;;;;19.11;44.33;98688.17;233701;1217;138368;-61
2022/05/23 10:32:06;;;;;;;69.30;48.40;;;;;;;19.12;44.18;98690.79;233625;1217;140421;-61
2022/05/23 10:37:18;;;;;;;7.10;2.50;;;;;;;19.05;44.25;98689.16;233691;1217;139541;-60
2022/05/23 10:43:01;;;;;;;4.90;1.50;;;;;;;19.01;44.36;98686.39;233635;1217;139081;-59
2022/05/23 10:48:26;;;;;;;116.90;78.50;;;;;;;18.98;44.28;98692.88;233629;1217;138676;-61
2022/05/23 10:53:53;;;;;;;10.00;7.30;;;;;;;19.11;45.19;98695.92;233625;1217;139457;-60
2022/05/23 10:59:09;;;;;;;5.60;2.30;;;;;;;19.42;45.27;98684.58;233866;1217;139213;-61
2022/05/23 11:04:27;;;;;;;5.40;1.90;;;;;;;19.54;44.48;98679.76;233652;1216;138803;-60
2022/05/23 11:10:07;;;;;;;2.60;1.60;;;;;;;19.61;44.13;98678.50;233471;1216;138804;-60
2022/05/23 11:16:00;;;;;;;3.10;1.50;;;;;;;19.55;43.54;98678.22;233251;1217;138763;-60
2022/05/23 11:21:15;;;;;;;5.60;1.90;;;;;;;19.55;43.54;98679.25;233146;1217;139102;-61
2022/05/23 11:26:31;;;;;;;3.50;1.90;;;;;;;19.64;43.94;98671.54;233602;1217;138442;-60
2022/05/23 11:37:42;;;;;;;3.70;1.30;;;;;;;19.85;43.92;98663.35;233435;1217;139026;-60
2022/05/23 11:42:42;;;;;;;3.20;1.50;;;;;;;19.91;43.72;98667.27;233564;1217;138655;-62
2022/05/23 11:47:51;;;;;;;3.50;1.50;;;;;;;19.98;43.45;98665.20;233757;1217;139167;-58
2022/05/23 11:53:12;;;;;;;4.30;1.50;;;;;;;20.03;43.30;98666.40;233696;1216;139042;-59
2022/05/23 11:58:36;;;;;;;11.00;7.90;;;;;;;20.11;43.16;98660.24;233605;1216;139097;-62
2022/05/23 12:03:52;;;;;;;6.70;5.20;;;;;;;20.22;43.10;98657.42;233826;1216;138961;-61
2022/05/23 12:09:01;;;;;;;7.10;3.60;;;;;;;20.32;42.77;98649.77;233697;1217;139134;-60
2022/05/23 12:14:28;;;;;;;3.70;1.80;;;;;;;20.50;42.42;98644.10;233544;1217;139004;-61
2022/05/23 12:19:39;;;;;;;2.20;1.20;;;;;;;20.76;42.21;98630.19;233770;1217;138746;-59
2022/05/23 12:25:21;;;;;;;5.30;4.10;;;;;;;21.33;41.86;98638.66;233694;1216;138411;-60
2022/05/23 12:30:26;;;;;;;2.80;2.20;;;;;;;21.79;41.46;98628.92;233709;1217;138739;-59
2022/05/23 12:35:30;;;;;;;4.00;2.30;;;;;;;21.81;40.77;98623.92;233676;1216;138597;-62
2022/05/23 12:40:45;;;;;;;2.40;1.30;;;;;;;21.71;40.31;98612.17;233424;1217;139886;-60
2022/05/23 12:45:54;;;;;;;;;;;;;;;22.01;40.21;98601.15;233611;1217;138847;-60
2022/05/23 12:51:07;;;;;;;7.40;1.80;;;;;;;22.32;39.93;98587.28;233821;1216;124724;-60
2022/05/23 12:56:28;;;;;;;4.20;2.30;;;;;;;22.50;39.95;98581.13;233441;1216;140990;-58
2022/05/23 13:01:37;;;;;;;195.20;129.10;;;;;;;22.33;39.89;98580.34;233508;1217;138725;-62
2022/05/23 13:06:50;;;;;;;11.20;5.00;;;;;;;22.16;39.45;98573.35;233652;1217;139487;-61
2022/05/23 13:11:56;;;;;;;4.30;1.90;;;;;;;22.35;39.73;98563.80;233717;1217;138720;-60
2022/05/23 13:16:59;;;;;;;3.60;2.10;;;;;;;22.25;39.09;98562.34;233562;1216;138822;-60
2022/05/23 13:22:12;;;;;;;4.50;1.10;;;;;;;22.09;38.72;98557.71;233132;1217;139829;-60
2022/05/23 13:27:44;;;;;;;3.60;1.20;;;;;;;22.23;39.19;98554.41;233745;1217;139789;-61
2022/05/23 13:33:02;;;;;;;3.00;1.00;;;;;;;22.76;38.92;98541.73;233519;1217;138887;-61
2022/05/23 13:38:16;;;;;;;3.70;1.20;;;;;;;22.84;37.99;98529.02;233514;1216;139184;-60
2022/05/23 13:43:31;;;;;;;5.30;1.50;;;;;;;22.66;36.99;98531.38;233515;1217;139402;-62
2022/05/23 13:48:46;;;;;;;3.00;1.60;;;;;;;22.70;37.15;98528.54;233818;1217;139905;-62
2022/05/23 13:53:55;;;;;;;4.20;2.40;;;;;;;22.90;37.03;98519.66;233461;1217;139285;-62
2022/05/23 13:59:24;;;;;;;5.50;3.70;;;;;;;23.18;37.20;98517.79;233826;1217;138610;-61
2022/05/23 14:04:32;;;;;;;8.70;2.70;;;;;;;23.46;37.02;98512.54;232119;1217;138486;-62
2022/05/23 14:16:35;;;;;;;2.90;2.00;;;;;;;23.23;36.41;98526.04;233626;1216;138903;-62
2022/05/23 14:21:39;;;;;;;4.40;1.50;;;;;;;22.77;36.10;98518.71;233670;1215;139203;-62
2022/05/23 14:26:42;;;;;;;2.90;1.40;;;;;;;22.33;36.49;98528.99;233648;1217;138839;-62
2022/05/23 14:31:48;;;;;;;5.60;1.50;;;;;;;22.19;36.81;98523.15;233608;1217;138628;-62
2022/05/23 14:36:57;;;;;;;2.80;1.10;;;;;;;22.17;37.04;98521.16;233303;1217;138970;-62
2022/05/23 14:42:20;;;;;;;3.60;1.50;;;;;;;22.03;36.76;98518.88;233322;1219;139162;-62
2022/05/23 14:47:25;;;;;;;6.40;1.90;;;;;;;21.89;37.57;98513.79;233697;1216;138524;-62
2022/05/23 14:55:18;;;;;;;6.20;3.30;;;;;;;21.80;37.43;98508.67;233750;1217;139080;-64
2022/05/23 15:03:42;;;;;;;9.80;4.60;;;;;;;21.60;38.60;98501.54;233481;1217;139376;-63
2022/05/23 15:08:46;;;;;;;3.60;1.70;;;;;;;21.57;38.35;98496.44;233674;1217;139463;-64
2022/05/23 15:13:49;;;;;;;3.80;2.00;;;;;;;21.51;38.01;98494.95;233733;1217;139028;-64
2022/05/23 15:18:53;;;;;;;5.10;3.00;;;;;;;21.46;37.93;98486.84;233514;1217;138530;-64
2022/05/23 15:23:56;;;;;;;5.80;2.20;;;;;;;21.43;38.07;98484.25;233336;1217;139019;-64
2022/05/23 15:29:00;;;;;;;4.70;2.30;;;;;;;21.42;38.35;98484.81;233582;1217;138617;-64
2022/05/23 15:34:03;;;;;;;14.00;3.90;;;;;;;21.41;38.80;98480.89;233674;1217;138912;-64
2022/05/23 15:39:07;;;;;;;12.20;4.10;;;;;;;21.47;38.94;98482.88;233693;1217;139214;-63
2022/05/23 15:44:15;;;;;;;6.00;2.80;;;;;;;21.50;38.90;98481.58;233660;1217;139220;-62
2022/05/23 15:49:18;;;;;;;4.60;1.80;;;;;;;21.47;38.73;98478.20;233587;1215;139308;-64
2022/05/23 15:54:21;;;;;;;4.70;2.30;;;;;;;21.40;38.62;98470.23;233587;1217;138832;-63
2022/05/23 15:59:27;;;;;;;7.10;2.20;;;;;;;21.34;38.87;98470.74;233573;1217;138566;-63
2022/05/23 16:04:30;;;;;;;3.40;2.20;;;;;;;21.30;38.72;98466.85;233455;1217;138902;-64
2022/05/23 16:09:35;;;;;;;3.30;1.60;;;;;;;21.31;38.61;98465.46;233455;1217;138817;-64
2022/05/23 16:14:43;;;;;;;3.60;1.60;;;;;;;21.20;38.28;98460.73;233179;1217;138905;-62
2022/05/23 16:19:47;;;;;;;4.10;1.60;;;;;;;21.05;38.03;98457.58;232092;1216;138801;-65
2022/05/23 16:24:51;;;;;;;7.40;1.60;;;;;;;20.89;38.06;98453.00;232286;1217;138781;-66
2022/05/23 16:30:14;;;;;;;2.90;1.60;;;;;;;20.75;38.45;98451.46;233625;1215;138895;-64
2022/05/23 16:40:54;;;;;;;5.00;2.20;;;;;;;20.65;38.35;98451.95;233456;1217;138440;-64
2022/05/23 16:45:58;;;;;;;6.30;2.70;;;;;;;20.59;38.51;98447.92;233453;1217;139350;-66
2022/05/23 16:51:03;;;;;;;6.20;2.50;;;;;;;20.57;38.64;98438.95;232992;1216;138517;-63
2022/05/23 16:56:07;;;;;;;5.80;3.30;;;;;;;20.56;38.61;98437.46;233574;1217;140332;-63
2022/05/23 17:01:10;;;;;;;6.70;2.20;;;;;;;20.46;38.27;98431.88;233423;1217;139075;-65
2022/05/23 17:06:14;;;;;;;7.60;2.90;;;;;;;20.35;38.25;98422.62;233483;1217;138723;-64
2022/05/23 17:11:22;;;;;;;9.10;3.10;;;;;;;20.31;38.49;98428.84;233778;1216;138280;-66
2022/05/23 17:16:48;;;;;;;8.10;3.70;;;;;;;20.26;38.75;98431.23;231375;1217;138634;-63
2022/05/23 17:21:51;;;;;;;8.30;3.20;;;;;;;20.14;38.82;98435.42;233343;1217;139016;-65
2022/05/23 17:26:55;;;;;;;7.90;2.80;;;;;;;20.02;39.05;98444.52;232396;1217;139582;-68
2022/05/23 17:31:58;;;;;;;7.00;2.90;;;;;;;19.89;39.46;98456.04;233655;1217;138585;-68
2022/05/23 17:37:02;;;;;;;6.80;2.70;;;;;;;19.82;39.66;98462.76;232484;1217;138731;-65
2022/05/23 17:42:06;;;;;;;6.50;3.10;;;;;;;19.72;39.71;98459.77;233588;1215;139337;-66
2022/05/23 17:47:09;;;;;;;6.80;3.20;;;;;;;19.61;39.79;98444.13;233783;1217;138602;-64
2022/05/23 17:52:12;;;;;;;7.00;2.40;;;;;;;19.48;39.83;98445.95;233630;1217;139677;-65
2022/05/23 17:57:20;;;;;;;7.60;2.40;;;;;;;19.39;39.88;98441.88;233504;1216;139012;-65
2022/05/23 18:02:24;;;;;;;8.60;2.90;;;;;;;19.27;40.04;98434.38;233509;1217;138719;-63
2022/05/23 18:07:32;;;;;;;7.20;3.20;;;;;;;19.25;40.29;98430.91;233049;1217;139274;-66
2022/05/23 18:12:36;;;;;;;8.30;3.00;;;;;;;19.19;40.36;98432.73;233105;1217;138313;-65
2022/05/23 18:23:15;;;;;;;7.70;3.10;;;;;;;19.17;40.87;98430.05;233790;1216;138553;-66
2022/05/23 18:28:22;;;;;;;8.50;3.00;;;;;;;19.23;40.79;98426.91;233477;1217;139856;-72
2022/05/23 18:33:30;;;;;;;6.50;3.20;;;;;;;19.15;40.64;98430.37;233367;1217;138585;-68
2022/05/23 18:38:38;;;;;;;8.20;3.10;;;;;;;19.11;40.67;98438.19;233401;1217;138754;-69
2022/05/23 18:43:44;;;;;;;6.70;3.40;;;;;;;19.04;40.72;98444.15;233564;1217;138873;-68
2022/05/23 18:54:13;;;;;;;7.80;3.00;;;;;;;18.95;41.05;98442.61;233421;1216;139850;-67
2022/05/23 18:59:16;;;;;;;7.70;3.10;;;;;;;18.95;41.01;98446.08;233524;1217;139602;-66
2022/05/23 19:04:19;;;;;;;27.40;17.00;;;;;;;18.96;41.09;98441.77;233682;1217;142024;-64
2022/05/23 19:09:39;;;;;;;7.60;3.10;;;;;;;18.95;41.26;98446.29;233818;1216;139086;-64
2022/05/23 19:14:44;;;;;;;8.80;3.60;;;;;;;18.80;40.87;98444.42;233402;1217;138787;-64
2022/05/23 19:19:48;;;;;;;134.60;104.40;;;;;;;18.62;40.71;98461.88;233427;1217;139125;-62
2022/05/23 19:24:52;;;;;;;5.90;3.80;;;;;;;18.48;40.84;98460.63;233634;1217;140338;-62
2022/05/23 19:29:55;;;;;;;6.30;3.00;;;;;;;18.36;41.11;98466.20;233813;1216;139520;-63
2022/05/23 19:34:58;;;;;;;7.00;2.30;;;;;;;18.25;41.11;98464.34;233098;1209;138659;-62
2022/05/23 19:40:05;;;;;;;56.90;41.40;;;;;;;18.14;41.07;98457.18;233346;1217;138684;-61
2022/05/23 19:45:10;;;;;;;64.40;48.50;;;;;;;18.03;41.42;98460.98;233433;1217;139473;-62
2022/05/23 19:50:13;;;;;;;18.80;9.30;;;;;;;17.97;41.80;98467.87;233414;1217;138997;-61
2022/05/23 19:55:19;;;;;;;9.40;4.00;;;;;;;17.84;41.87;98472.61;233469;1217;139035;-62
2022/05/23 20:00:23;;;;;;;9.20;3.40;;;;;;;17.77;42.05;98475.33;233423;1217;139237;-61
2022/05/23 20:10:48;;;;;;;10.00;4.40;;;;;;;17.58;42.37;98470.89;233728;1217;138860;-63
2022/05/23 20:15:57;;;;;;;36.10;25.10;;;;;;;17.51;42.27;98474.43;233217;1217;138817;-63
2022/05/23 20:21:03;;;;;;;15.70;5.60;;;;;;;17.45;42.62;98483.11;233390;1208;139513;-64
2022/05/23 20:26:07;;;;;;;17.40;6.10;;;;;;;17.33;42.52;98483.08;233397;1217;138903;-63
2022/05/23 20:31:10;;;;;;;11.60;5.20;;;;;;;17.21;42.82;98478.31;233309;1219;139669;-61
2022/05/23 20:36:14;;;;;;;7.50;3.40;;;;;;;17.09;43.00;98468.05;233457;1217;141963;-63
2022/05/23 20:41:18;;;;;;;25.40;21.40;;;;;;;17.00;43.15;98467.10;233505;1217;138278;-62
2022/05/23 20:46:25;;;;;;;15.00;11.60;;;;;;;16.92;43.43;98469.00;233287;1217;139113;-63
2022/05/23 20:51:29;;;;;;;7.50;3.60;;;;;;;16.91;43.58;98472.33;233358;1217;139212;-62
2022/05/23 20:56:34;;;;;;;4.20;2.70;;;;;;;16.78;43.61;98465.84;233520;1217;138407;-62
2022/05/23 21:01:58;;;;;;;7.20;3.80;;;;;;;16.67;43.95;98463.27;233586;1217;139541;-63
2022/05/23 21:07:04;;;;;;;5.30;2.70;;;;;;;16.56;43.94;98454.84;233645;1217;140309;-64
2022/05/23 21:12:08;;;;;;;3.00;2.30;;;;;;;16.45;44.08;98452.70;233762;1217;138985;-63
2022/05/23 21:17:18;;;;;;;2.90;2.20;;;;;;;16.37;44.33;98454.54;233736;1215;138599;-63
2022/05/23 21:22:26;;;;;;;3.90;2.60;;;;;;;16.28;44.39;98458.98;233703;1216;138982;-63
2022/05/23 21:27:29;;;;;;;3.30;2.50;;;;;;;16.18;44.73;98464.08;233734;1217;232775;-63
2022/05/23 21:32:32;;;;;;;3.50;2.40;;;;;;;16.08;44.85;98458.88;233573;1217;138927;-63
2022/05/23 21:37:36;;;;;;;4.70;2.30;;;;;;;16.03;45.20;98459.04;233627;1216;139064;-62
2022/05/23 21:48:03;;;;;;;5.00;2.50;;;;;;;15.87;45.26;98457.85;234301;1215;138683;-64
2022/05/23 21:53:07;;;;;;;5.50;2.50;;;;;;;15.79;45.54;98453.58;234145;1217;138205;-64
2022/05/23 21:58:15;;;;;;;5.20;2.50;;;;;;;15.71;45.79;98452.48;233927;1217;139169;-63
2022/05/23 22:03:19;;;;;;;6.40;2.80;;;;;;;15.67;46.12;98455.57;234065;1217;138368;-63
2022/05/23 22:08:24;;;;;;;3.40;2.90;;;;;;;15.59;46.15;98447.52;233937;1217;138744;-64
2022/05/23 22:13:28;;;;;;;4.60;3.20;;;;;;;15.54;46.32;98449.41;234243;1216;140825;-64
2022/05/23 22:18:34;;;;;;;6.80;2.80;;;;;;;15.45;46.60;98445.05;234177;1217;138276;-64
2022/05/23 22:23:37;;;;;;;6.00;3.10;;;;;;;15.42;46.69;98447.88;234175;1217;138924;-62
2022/05/23 22:28:40;;;;;;;4.20;2.60;;;;;;;15.33;46.89;98440.04;234280;1217;139059;-62
2022/05/23 22:33:43;;;;;;;4.60;2.90;;;;;;;15.34;47.08;98440.11;234307;1216;140456;-62
2022/05/23 22:38:46;;;;;;;4.90;3.00;;;;;;;15.26;47.06;98425.69;233982;1217;138996;-62
2022/05/23 22:43:49;;;;;;;4.10;2.70;;;;;;;15.21;47.25;98420.10;233824;1219;138957;-62
2022/05/23 22:48:54;;;;;;;5.70;3.10;;;;;;;15.10;47.39;98407.83;234041;1217;138425;-63
2022/05/23 22:53:58;;;;;;;3.50;3.00;;;;;;;15.05;47.63;98403.64;234223;1217;138152;-62
2022/05/23 22:59:01;;;;;;;3.60;2.90;;;;;;;15.01;47.82;98410.22;233927;1217;139121;-63
2022/05/23 23:04:22;;;;;;;4.50;2.90;;;;;;;15.03;47.83;98407.12;234262;1216;138868;-64
2022/05/23 23:09:27;;;;;;;5.00;2.90;;;;;;;15.02;48.15;98401.27;234049;1216;138406;-62
2022/05/23 23:14:30;;;;;;;4.30;3.20;;;;;;;14.98;48.23;98394.70;234056;1217;139138;-63
2022/05/23 23:19:33;;;;;;;6.30;3.20;;;;;;;14.95;48.34;98389.59;234199;1215;138789;-63
2022/05/23 23:24:36;;;;;;;4.30;3.00;;;;;;;14.87;48.36;98392.77;234094;1215;140737;-62
2022/05/23 23:29:39;;;;;;;4.00;3.00;;;;;;;14.81;48.72;98399.77;233442;1216;138546;-62
2022/05/23 23:40:04;;;;;;;5.30;3.10;;;;;;;14.69;48.99;98398.34;234133;1216;138769;-64
2022/05/23 23:45:08;;;;;;;4.70;3.00;;;;;;;14.66;49.13;98390.69;233753;1217;138462;-63
2022/05/23 23:50:15;;;;;;;3.60;3.20;;;;;;;14.61;49.21;98379.21;233576;1217;139051;-63
2022/05/23 23:55:19;;;;;;;7.30;4.80;;;;;;;14.58;49.34;98377.31;233471;1217;138895;-63
